sensor_id;sensor_type;location;lat;lon;timestamp;P1;durP1;ratioP1;P2;durP2;ratioP2
31652;SDS011;18261;53.648;9.910;2024-02-28T00:01:49;80.15;;;50.50;;
31652;SDS011;18261;53.648;9.910;2024-02-28T00:04:15;74.90;;;49.60;;
31652;SDS011;18261;53.648;9.910;2024-02-28T00:06:42;77.43;;;49.38;;
31652;SDS011;18261;53.648;9.910;2024-02-28T00:09:08;79.43;;;49.15;;
31652;SDS011;18261;53.648;9.910;2024-02-28T00:11:34;76.88;;;49.80;;
31652;SDS011;18261;53.648;9.910;2024-02-28T00:14:00;75.15;;;49.42;;
31652;SDS011;18261;53.648;9.910;2024-02-28T00:16:27;74.97;;;49.03;;
31652;SDS011;18261;53.648;9.910;2024-02-28T00:18:53;77.07;;;50.50;;
31652;SDS011;18261;53.648;9.910;2024-02-28T00:21:19;72.95;;;48.72;;
31652;SDS011;18261;53.648;9.910;2024-02-28T00:23:45;77.32;;;50.65;;
31652;SDS011;18261;53.648;9.910;2024-02-28T00:26:12;74.32;;;48.85;;
31652;SDS011;18261;53.648;9.910;2024-02-28T00:28:38;76.07;;;50.25;;
31652;SDS011;18261;53.648;9.910;2024-02-28T00:31:04;77.15;;;50.85;;
31652;SDS011;18261;53.648;9.910;2024-02-28T00:33:30;76.00;;;49.60;;
31652;SDS011;18261;53.648;9.910;2024-02-28T00:35:55;75.10;;;48.63;;
31652;SDS011;18261;53.648;9.910;2024-02-28T00:38:21;77.65;;;48.15;;
31652;SDS011;18261;53.648;9.910;2024-02-28T00:40:47;71.80;;;47.83;;
31652;SDS011;18261;53.648;9.910;2024-02-28T00:43:13;74.90;;;48.53;;
31652;SDS011;18261;53.648;9.910;2024-02-28T00:45:39;76.50;;;48.63;;
31652;SDS011;18261;53.648;9.910;2024-02-28T00:48:06;74.15;;;46.85;;
31652;SDS011;18261;53.648;9.910;2024-02-28T00:50:32;75.50;;;48.78;;
31652;SDS011;18261;53.648;9.910;2024-02-28T00:52:58;78.10;;;49.10;;
31652;SDS011;18261;53.648;9.910;2024-02-28T00:55:24;76.03;;;47.65;;
31652;SDS011;18261;53.648;9.910;2024-02-28T00:57:50;76.68;;;48.38;;
31652;SDS011;18261;53.648;9.910;2024-02-28T01:00:16;78.45;;;47.58;;
31652;SDS011;18261;53.648;9.910;2024-02-28T01:02:42;72.30;;;47.60;;
31652;SDS011;18261;53.648;9.910;2024-02-28T01:05:08;69.80;;;45.28;;
31652;SDS011;18261;53.648;9.910;2024-02-28T01:07:34;69.45;;;45.28;;
31652;SDS011;18261;53.648;9.910;2024-02-28T01:10:00;74.72;;;47.17;;
31652;SDS011;18261;53.648;9.910;2024-02-28T01:12:26;79.30;;;48.58;;
31652;SDS011;18261;53.648;9.910;2024-02-28T01:14:52;73.55;;;45.80;;
31652;SDS011;18261;53.648;9.910;2024-02-28T01:17:18;70.47;;;45.95;;
31652;SDS011;18261;53.648;9.910;2024-02-28T01:19:44;74.80;;;46.85;;
31652;SDS011;18261;53.648;9.910;2024-02-28T01:22:10;74.90;;;48.90;;
31652;SDS011;18261;53.648;9.910;2024-02-28T01:24:36;72.13;;;45.60;;
31652;SDS011;18261;53.648;9.910;2024-02-28T01:27:02;75.38;;;46.90;;
31652;SDS011;18261;53.648;9.910;2024-02-28T01:29:28;70.45;;;45.20;;
31652;SDS011;18261;53.648;9.910;2024-02-28T01:31:55;74.25;;;46.53;;
31652;SDS011;18261;53.648;9.910;2024-02-28T01:34:21;72.15;;;46.08;;
31652;SDS011;18261;53.648;9.910;2024-02-28T01:36:47;75.82;;;46.25;;
31652;SDS011;18261;53.648;9.910;2024-02-28T01:39:13;71.28;;;45.10;;
31652;SDS011;18261;53.648;9.910;2024-02-28T01:41:39;70.65;;;44.38;;
31652;SDS011;18261;53.648;9.910;2024-02-28T01:44:05;71.07;;;44.05;;
31652;SDS011;18261;53.648;9.910;2024-02-28T01:46:31;71.97;;;42.85;;
31652;SDS011;18261;53.648;9.910;2024-02-28T01:48:57;66.32;;;42.10;;
31652;SDS011;18261;53.648;9.910;2024-02-28T01:51:24;69.93;;;43.95;;
31652;SDS011;18261;53.648;9.910;2024-02-28T01:53:52;70.82;;;42.50;;
31652;SDS011;18261;53.648;9.910;2024-02-28T01:56:18;69.75;;;42.97;;
31652;SDS011;18261;53.648;9.910;2024-02-28T01:58:48;69.28;;;43.90;;
31652;SDS011;18261;53.648;9.910;2024-02-28T02:01:15;72.90;;;44.63;;
31652;SDS011;18261;53.648;9.910;2024-02-28T02:03:42;74.05;;;45.17;;
31652;SDS011;18261;53.648;9.910;2024-02-28T02:06:08;70.78;;;43.30;;
31652;SDS011;18261;53.648;9.910;2024-02-28T02:08:36;70.65;;;42.63;;
31652;SDS011;18261;53.648;9.910;2024-02-28T02:11:02;65.53;;;41.60;;
31652;SDS011;18261;53.648;9.910;2024-02-28T02:13:28;68.82;;;41.53;;
31652;SDS011;18261;53.648;9.910;2024-02-28T02:15:54;66.00;;;41.28;;
31652;SDS011;18261;53.648;9.910;2024-02-28T02:18:20;67.72;;;41.05;;
31652;SDS011;18261;53.648;9.910;2024-02-28T02:20:46;68.32;;;42.08;;
31652;SDS011;18261;53.648;9.910;2024-02-28T02:23:15;69.28;;;41.63;;
31652;SDS011;18261;53.648;9.910;2024-02-28T02:25:45;70.45;;;43.67;;
31652;SDS011;18261;53.648;9.910;2024-02-28T02:28:11;70.43;;;42.05;;
31652;SDS011;18261;53.648;9.910;2024-02-28T02:30:37;70.63;;;41.63;;
31652;SDS011;18261;53.648;9.910;2024-02-28T02:33:04;70.40;;;42.72;;
31652;SDS011;18261;53.648;9.910;2024-02-28T02:35:30;69.57;;;42.40;;
31652;SDS011;18261;53.648;9.910;2024-02-28T02:37:56;71.65;;;42.60;;
31652;SDS011;18261;53.648;9.910;2024-02-28T02:40:22;67.00;;;40.35;;
31652;SDS011;18261;53.648;9.910;2024-02-28T02:42:48;66.32;;;39.10;;
31652;SDS011;18261;53.648;9.910;2024-02-28T02:45:14;65.80;;;39.58;;
31652;SDS011;18261;53.648;9.910;2024-02-28T02:47:40;66.05;;;38.40;;
31652;SDS011;18261;53.648;9.910;2024-02-28T02:50:06;59.08;;;36.53;;
31652;SDS011;18261;53.648;9.910;2024-02-28T02:52:32;61.72;;;36.30;;
31652;SDS011;18261;53.648;9.910;2024-02-28T02:54:58;68.82;;;38.03;;
31652;SDS011;18261;53.648;9.910;2024-02-28T02:57:24;62.13;;;36.85;;
31652;SDS011;18261;53.648;9.910;2024-02-28T02:59:50;61.83;;;36.75;;
31652;SDS011;18261;53.648;9.910;2024-02-28T03:02:16;57.83;;;34.83;;
31652;SDS011;18261;53.648;9.910;2024-02-28T03:04:42;61.95;;;36.20;;
31652;SDS011;18261;53.648;9.910;2024-02-28T03:07:08;63.08;;;36.33;;
31652;SDS011;18261;53.648;9.910;2024-02-28T03:09:34;59.92;;;34.42;;
31652;SDS011;18261;53.648;9.910;2024-02-28T03:12:00;60.15;;;35.70;;
31652;SDS011;18261;53.648;9.910;2024-02-28T03:14:26;58.08;;;34.28;;
31652;SDS011;18261;53.648;9.910;2024-02-28T03:16:52;58.53;;;34.25;;
31652;SDS011;18261;53.648;9.910;2024-02-28T03:19:18;66.75;;;36.05;;
31652;SDS011;18261;53.648;9.910;2024-02-28T03:21:44;64.55;;;36.92;;
31652;SDS011;18261;53.648;9.910;2024-02-28T03:24:10;64.38;;;35.53;;
31652;SDS011;18261;53.648;9.910;2024-02-28T03:26:36;60.95;;;35.80;;
31652;SDS011;18261;53.648;9.910;2024-02-28T03:29:02;61.17;;;35.50;;
31652;SDS011;18261;53.648;9.910;2024-02-28T03:31:28;68.03;;;38.45;;
31652;SDS011;18261;53.648;9.910;2024-02-28T03:33:54;67.10;;;38.53;;
31652;SDS011;18261;53.648;9.910;2024-02-28T03:36:20;64.70;;;36.13;;
31652;SDS011;18261;53.648;9.910;2024-02-28T03:38:46;66.10;;;37.42;;
31652;SDS011;18261;53.648;9.910;2024-02-28T03:41:12;65.65;;;38.50;;
31652;SDS011;18261;53.648;9.910;2024-02-28T03:43:38;65.38;;;37.17;;
31652;SDS011;18261;53.648;9.910;2024-02-28T03:46:04;66.18;;;37.47;;
31652;SDS011;18261;53.648;9.910;2024-02-28T03:48:30;64.18;;;37.05;;
31652;SDS011;18261;53.648;9.910;2024-02-28T03:50:56;71.43;;;39.05;;
31652;SDS011;18261;53.648;9.910;2024-02-28T03:53:22;67.70;;;38.33;;
31652;SDS011;18261;53.648;9.910;2024-02-28T03:55:48;64.32;;;37.50;;
31652;SDS011;18261;53.648;9.910;2024-02-28T03:58:15;69.63;;;38.20;;
31652;SDS011;18261;53.648;9.910;2024-02-28T04:00:41;70.15;;;37.55;;
31652;SDS011;18261;53.648;9.910;2024-02-28T04:03:09;70.60;;;38.42;;
31652;SDS011;18261;53.648;9.910;2024-02-28T04:05:35;70.30;;;38.08;;
31652;SDS011;18261;53.648;9.910;2024-02-28T04:08:01;68.88;;;38.45;;
31652;SDS011;18261;53.648;9.910;2024-02-28T04:10:27;63.10;;;35.40;;
31652;SDS011;18261;53.648;9.910;2024-02-28T04:12:53;70.35;;;37.25;;
31652;SDS011;18261;53.648;9.910;2024-02-28T04:15:19;69.95;;;37.60;;
31652;SDS011;18261;53.648;9.910;2024-02-28T04:17:45;68.53;;;36.15;;
31652;SDS011;18261;53.648;9.910;2024-02-28T04:20:11;69.68;;;38.42;;
31652;SDS011;18261;53.648;9.910;2024-02-28T04:22:38;70.20;;;38.50;;
31652;SDS011;18261;53.648;9.910;2024-02-28T04:25:05;67.95;;;38.03;;
31652;SDS011;18261;53.648;9.910;2024-02-28T04:27:32;62.45;;;35.28;;
31652;SDS011;18261;53.648;9.910;2024-02-28T04:29:58;60.72;;;35.90;;
31652;SDS011;18261;53.648;9.910;2024-02-28T04:32:24;69.32;;;37.15;;
31652;SDS011;18261;53.648;9.910;2024-02-28T04:34:50;65.20;;;36.63;;
31652;SDS011;18261;53.648;9.910;2024-02-28T04:37:17;63.58;;;34.75;;
31652;SDS011;18261;53.648;9.910;2024-02-28T04:39:43;65.97;;;34.53;;
31652;SDS011;18261;53.648;9.910;2024-02-28T04:42:09;64.57;;;35.03;;
31652;SDS011;18261;53.648;9.910;2024-02-28T04:44:34;69.03;;;37.35;;
31652;SDS011;18261;53.648;9.910;2024-02-28T04:47:01;62.83;;;34.78;;
31652;SDS011;18261;53.648;9.910;2024-02-28T04:49:27;64.10;;;34.30;;
31652;SDS011;18261;53.648;9.910;2024-02-28T04:51:53;67.72;;;35.60;;
31652;SDS011;18261;53.648;9.910;2024-02-28T04:54:19;60.47;;;34.83;;
31652;SDS011;18261;53.648;9.910;2024-02-28T04:56:45;62.67;;;34.33;;
31652;SDS011;18261;53.648;9.910;2024-02-28T04:59:11;64.80;;;34.08;;
31652;SDS011;18261;53.648;9.910;2024-02-28T05:01:38;68.45;;;36.60;;
31652;SDS011;18261;53.648;9.910;2024-02-28T05:04:08;69.32;;;36.60;;
31652;SDS011;18261;53.648;9.910;2024-02-28T05:06:34;65.60;;;35.88;;
31652;SDS011;18261;53.648;9.910;2024-02-28T05:09:00;69.45;;;38.03;;
31652;SDS011;18261;53.648;9.910;2024-02-28T05:11:26;68.57;;;35.65;;
31652;SDS011;18261;53.648;9.910;2024-02-28T05:13:52;67.50;;;35.97;;
31652;SDS011;18261;53.648;9.910;2024-02-28T05:16:18;74.75;;;38.70;;
31652;SDS011;18261;53.648;9.910;2024-02-28T05:18:45;69.20;;;37.85;;
31652;SDS011;18261;53.648;9.910;2024-02-28T05:21:11;70.97;;;38.38;;
31652;SDS011;18261;53.648;9.910;2024-02-28T05:23:37;64.93;;;36.60;;
31652;SDS011;18261;53.648;9.910;2024-02-28T05:26:03;70.70;;;38.33;;
31652;SDS011;18261;53.648;9.910;2024-02-28T05:28:31;67.85;;;36.10;;
31652;SDS011;18261;53.648;9.910;2024-02-28T05:30:58;70.28;;;37.95;;
31652;SDS011;18261;53.648;9.910;2024-02-28T05:33:25;68.85;;;39.00;;
31652;SDS011;18261;53.648;9.910;2024-02-28T05:35:51;73.32;;;39.90;;
31652;SDS011;18261;53.648;9.910;2024-02-28T05:38:17;78.57;;;41.22;;
31652;SDS011;18261;53.648;9.910;2024-02-28T05:40:43;69.90;;;39.25;;
31652;SDS011;18261;53.648;9.910;2024-02-28T05:43:09;72.85;;;40.50;;
31652;SDS011;18261;53.648;9.910;2024-02-28T05:45:35;73.30;;;40.78;;
31652;SDS011;18261;53.648;9.910;2024-02-28T05:48:01;80.13;;;42.60;;
31652;SDS011;18261;53.648;9.910;2024-02-28T05:50:27;73.25;;;40.10;;
31652;SDS011;18261;53.648;9.910;2024-02-28T05:52:54;77.50;;;40.00;;
31652;SDS011;18261;53.648;9.910;2024-02-28T05:55:20;75.43;;;40.53;;
31652;SDS011;18261;53.648;9.910;2024-02-28T05:57:49;76.43;;;41.05;;
31652;SDS011;18261;53.648;9.910;2024-02-28T06:00:15;76.72;;;41.17;;
31652;SDS011;18261;53.648;9.910;2024-02-28T06:02:41;75.50;;;41.55;;
31652;SDS011;18261;53.648;9.910;2024-02-28T06:05:07;74.93;;;40.20;;
31652;SDS011;18261;53.648;9.910;2024-02-28T06:07:33;73.47;;;41.95;;
31652;SDS011;18261;53.648;9.910;2024-02-28T06:09:59;75.47;;;42.38;;
31652;SDS011;18261;53.648;9.910;2024-02-28T06:12:25;76.82;;;42.35;;
31652;SDS011;18261;53.648;9.910;2024-02-28T06:14:51;77.35;;;42.22;;
31652;SDS011;18261;53.648;9.910;2024-02-28T06:17:17;73.75;;;41.88;;
31652;SDS011;18261;53.648;9.910;2024-02-28T06:19:43;76.30;;;40.75;;
31652;SDS011;18261;53.648;9.910;2024-02-28T06:22:09;72.45;;;40.70;;
31652;SDS011;18261;53.648;9.910;2024-02-28T06:24:35;72.95;;;40.60;;
31652;SDS011;18261;53.648;9.910;2024-02-28T06:27:01;80.80;;;41.72;;
31652;SDS011;18261;53.648;9.910;2024-02-28T06:29:28;67.47;;;38.75;;
31652;SDS011;18261;53.648;9.910;2024-02-28T06:31:54;71.20;;;38.50;;
31652;SDS011;18261;53.648;9.910;2024-02-28T06:34:20;71.18;;;39.38;;
31652;SDS011;18261;53.648;9.910;2024-02-28T06:36:47;73.90;;;39.17;;
31652;SDS011;18261;53.648;9.910;2024-02-28T06:39:13;67.55;;;38.42;;
31652;SDS011;18261;53.648;9.910;2024-02-28T06:41:40;66.95;;;37.00;;
31652;SDS011;18261;53.648;9.910;2024-02-28T06:44:06;68.68;;;37.80;;
31652;SDS011;18261;53.648;9.910;2024-02-28T06:46:32;71.28;;;40.08;;
31652;SDS011;18261;53.648;9.910;2024-02-28T06:48:58;64.53;;;37.05;;
31652;SDS011;18261;53.648;9.910;2024-02-28T06:51:24;72.70;;;38.85;;
31652;SDS011;18261;53.648;9.910;2024-02-28T06:53:50;66.32;;;35.72;;
31652;SDS011;18261;53.648;9.910;2024-02-28T06:56:16;64.15;;;36.10;;
31652;SDS011;18261;53.648;9.910;2024-02-28T06:58:42;61.50;;;35.25;;
31652;SDS011;18261;53.648;9.910;2024-02-28T07:01:08;62.40;;;35.70;;
31652;SDS011;18261;53.648;9.910;2024-02-28T07:03:34;57.90;;;33.40;;
31652;SDS011;18261;53.648;9.910;2024-02-28T07:06:00;56.33;;;32.85;;
31652;SDS011;18261;53.648;9.910;2024-02-28T07:08:26;58.30;;;32.28;;
31652;SDS011;18261;53.648;9.910;2024-02-28T07:10:52;59.78;;;32.85;;
31652;SDS011;18261;53.648;9.910;2024-02-28T07:13:19;55.03;;;31.58;;
31652;SDS011;18261;53.648;9.910;2024-02-28T07:15:46;53.30;;;31.15;;
31652;SDS011;18261;53.648;9.910;2024-02-28T07:18:13;56.88;;;30.92;;
31652;SDS011;18261;53.648;9.910;2024-02-28T07:20:39;61.30;;;31.95;;
31652;SDS011;18261;53.648;9.910;2024-02-28T07:23:05;52.50;;;31.42;;
31652;SDS011;18261;53.648;9.910;2024-02-28T07:25:31;53.95;;;30.85;;
31652;SDS011;18261;53.648;9.910;2024-02-28T07:27:58;56.88;;;30.30;;
31652;SDS011;18261;53.648;9.910;2024-02-28T07:30:24;53.83;;;30.60;;
31652;SDS011;18261;53.648;9.910;2024-02-28T07:32:50;54.75;;;30.52;;
31652;SDS011;18261;53.648;9.910;2024-02-28T07:35:16;51.17;;;30.10;;
31652;SDS011;18261;53.648;9.910;2024-02-28T07:37:43;51.25;;;29.90;;
31652;SDS011;18261;53.648;9.910;2024-02-28T07:40:10;53.35;;;31.55;;
31652;SDS011;18261;53.648;9.910;2024-02-28T07:42:36;53.03;;;29.80;;
31652;SDS011;18261;53.648;9.910;2024-02-28T07:45:02;51.90;;;30.75;;
31652;SDS011;18261;53.648;9.910;2024-02-28T07:47:28;56.55;;;31.05;;
31652;SDS011;18261;53.648;9.910;2024-02-28T07:49:54;56.38;;;30.88;;
31652;SDS011;18261;53.648;9.910;2024-02-28T07:52:20;59.20;;;31.90;;
31652;SDS011;18261;53.648;9.910;2024-02-28T07:54:46;58.30;;;32.55;;
31652;SDS011;18261;53.648;9.910;2024-02-28T07:57:12;54.20;;;31.15;;
31652;SDS011;18261;53.648;9.910;2024-02-28T07:59:40;58.85;;;33.08;;
31652;SDS011;18261;53.648;9.910;2024-02-28T08:02:07;61.25;;;31.92;;
31652;SDS011;18261;53.648;9.910;2024-02-28T08:04:33;62.58;;;34.00;;
31652;SDS011;18261;53.648;9.910;2024-02-28T08:06:59;67.13;;;35.67;;
31652;SDS011;18261;53.648;9.910;2024-02-28T08:09:25;66.43;;;34.67;;
31652;SDS011;18261;53.648;9.910;2024-02-28T08:11:52;58.95;;;34.53;;
31652;SDS011;18261;53.648;9.910;2024-02-28T08:14:18;66.05;;;36.65;;
31652;SDS011;18261;53.648;9.910;2024-02-28T08:16:44;58.88;;;34.67;;
31652;SDS011;18261;53.648;9.910;2024-02-28T08:19:09;62.55;;;34.50;;
31652;SDS011;18261;53.648;9.910;2024-02-28T08:21:36;63.20;;;35.83;;
31652;SDS011;18261;53.648;9.910;2024-02-28T08:24:02;65.40;;;37.05;;
31652;SDS011;18261;53.648;9.910;2024-02-28T08:26:30;64.82;;;36.80;;
31652;SDS011;18261;53.648;9.910;2024-02-28T08:28:56;69.40;;;39.13;;
31652;SDS011;18261;53.648;9.910;2024-02-28T08:31:22;64.03;;;36.90;;
31652;SDS011;18261;53.648;9.910;2024-02-28T08:33:48;67.93;;;38.22;;
31652;SDS011;18261;53.648;9.910;2024-02-28T08:36:14;69.72;;;38.42;;
31652;SDS011;18261;53.648;9.910;2024-02-28T08:38:40;66.95;;;36.88;;
31652;SDS011;18261;53.648;9.910;2024-02-28T08:41:07;71.13;;;38.00;;
31652;SDS011;18261;53.648;9.910;2024-02-28T08:43:37;66.55;;;37.50;;
31652;SDS011;18261;53.648;9.910;2024-02-28T08:46:03;62.40;;;36.53;;
31652;SDS011;18261;53.648;9.910;2024-02-28T08:48:29;66.00;;;36.03;;
31652;SDS011;18261;53.648;9.910;2024-02-28T08:50:55;59.42;;;35.10;;
31652;SDS011;18261;53.648;9.910;2024-02-28T08:53:21;60.88;;;35.67;;
31652;SDS011;18261;53.648;9.910;2024-02-28T08:55:47;56.35;;;34.72;;
31652;SDS011;18261;53.648;9.910;2024-02-28T08:58:14;57.70;;;34.72;;
31652;SDS011;18261;53.648;9.910;2024-02-28T09:00:40;61.83;;;35.72;;
31652;SDS011;18261;53.648;9.910;2024-02-28T09:03:06;60.78;;;35.20;;
31652;SDS011;18261;53.648;9.910;2024-02-28T09:05:32;60.60;;;35.88;;
31652;SDS011;18261;53.648;9.910;2024-02-28T09:07:58;61.50;;;35.70;;
31652;SDS011;18261;53.648;9.910;2024-02-28T09:10:24;64.65;;;37.10;;
31652;SDS011;18261;53.648;9.910;2024-02-28T09:12:50;61.85;;;36.42;;
31652;SDS011;18261;53.648;9.910;2024-02-28T09:15:16;57.35;;;35.63;;
31652;SDS011;18261;53.648;9.910;2024-02-28T09:17:43;65.15;;;36.47;;
31652;SDS011;18261;53.648;9.910;2024-02-28T09:20:10;61.50;;;36.70;;
31652;SDS011;18261;53.648;9.910;2024-02-28T09:22:36;68.95;;;37.80;;
31652;SDS011;18261;53.648;9.910;2024-02-28T09:25:02;71.18;;;37.85;;
31652;SDS011;18261;53.648;9.910;2024-02-28T09:27:29;67.80;;;39.00;;
31652;SDS011;18261;53.648;9.910;2024-02-28T09:29:55;65.07;;;37.90;;
31652;SDS011;18261;53.648;9.910;2024-02-28T09:32:21;63.10;;;38.10;;
31652;SDS011;18261;53.648;9.910;2024-02-28T09:34:48;64.65;;;37.35;;
31652;SDS011;18261;53.648;9.910;2024-02-28T09:37:14;64.68;;;36.38;;
31652;SDS011;18261;53.648;9.910;2024-02-28T09:39:42;64.63;;;36.78;;
31652;SDS011;18261;53.648;9.910;2024-02-28T09:42:08;60.45;;;33.67;;
31652;SDS011;18261;53.648;9.910;2024-02-28T09:44:35;61.80;;;35.05;;
31652;SDS011;18261;53.648;9.910;2024-02-28T09:47:02;62.38;;;33.78;;
31652;SDS011;18261;53.648;9.910;2024-02-28T09:49:28;56.88;;;32.92;;
31652;SDS011;18261;53.648;9.910;2024-02-28T09:51:54;64.65;;;33.28;;
31652;SDS011;18261;53.648;9.910;2024-02-28T09:54:21;58.38;;;32.47;;
31652;SDS011;18261;53.648;9.910;2024-02-28T09:56:47;58.25;;;33.10;;
31652;SDS011;18261;53.648;9.910;2024-02-28T09:59:19;53.33;;;32.80;;
31652;SDS011;18261;53.648;9.910;2024-02-28T10:01:47;53.25;;;32.67;;
31652;SDS011;18261;53.648;9.910;2024-02-28T10:04:17;55.72;;;32.72;;
31652;SDS011;18261;53.648;9.910;2024-02-28T10:06:44;44.88;;;28.77;;
31652;SDS011;18261;53.648;9.910;2024-02-28T10:09:10;47.78;;;30.15;;
31652;SDS011;18261;53.648;9.910;2024-02-28T10:11:36;45.97;;;28.55;;
31652;SDS011;18261;53.648;9.910;2024-02-28T10:14:02;46.70;;;29.55;;
31652;SDS011;18261;53.648;9.910;2024-02-28T10:16:28;47.33;;;29.20;;
31652;SDS011;18261;53.648;9.910;2024-02-28T10:18:54;43.70;;;26.70;;
31652;SDS011;18261;53.648;9.910;2024-02-28T10:21:20;46.20;;;27.73;;
31652;SDS011;18261;53.648;9.910;2024-02-28T10:23:47;51.15;;;30.98;;
31652;SDS011;18261;53.648;9.910;2024-02-28T10:26:13;49.22;;;30.38;;
31652;SDS011;18261;53.648;9.910;2024-02-28T10:28:40;46.95;;;29.27;;
31652;SDS011;18261;53.648;9.910;2024-02-28T10:31:06;45.08;;;27.70;;
31652;SDS011;18261;53.648;9.910;2024-02-28T10:33:32;43.30;;;28.65;;
31652;SDS011;18261;53.648;9.910;2024-02-28T10:36:00;46.72;;;28.90;;
31652;SDS011;18261;53.648;9.910;2024-02-28T10:38:27;41.05;;;26.30;;
31652;SDS011;18261;53.648;9.910;2024-02-28T10:40:54;43.20;;;27.48;;
31652;SDS011;18261;53.648;9.910;2024-02-28T10:43:21;52.00;;;28.45;;
31652;SDS011;18261;53.648;9.910;2024-02-28T10:45:48;53.45;;;29.50;;
31652;SDS011;18261;53.648;9.910;2024-02-28T10:48:14;48.55;;;28.45;;
31652;SDS011;18261;53.648;9.910;2024-02-28T10:50:41;49.75;;;30.60;;
31652;SDS011;18261;53.648;9.910;2024-02-28T10:53:13;52.97;;;29.85;;
31652;SDS011;18261;53.648;9.910;2024-02-28T10:55:41;54.50;;;29.85;;
31652;SDS011;18261;53.648;9.910;2024-02-28T10:58:09;52.03;;;28.70;;
31652;SDS011;18261;53.648;9.910;2024-02-28T11:00:38;47.40;;;27.38;;
31652;SDS011;18261;53.648;9.910;2024-02-28T11:03:06;49.88;;;28.55;;
31652;SDS011;18261;53.648;9.910;2024-02-28T11:05:39;48.05;;;27.90;;
31652;SDS011;18261;53.648;9.910;2024-02-28T11:08:11;49.78;;;27.35;;
31652;SDS011;18261;53.648;9.910;2024-02-28T11:10:40;48.90;;;26.70;;
31652;SDS011;18261;53.648;9.910;2024-02-28T11:13:20;52.08;;;29.45;;
31652;SDS011;18261;53.648;9.910;2024-02-28T11:15:46;51.40;;;28.02;;
31652;SDS011;18261;53.648;9.910;2024-02-28T11:18:12;47.72;;;28.48;;
31652;SDS011;18261;53.648;9.910;2024-02-28T11:20:38;56.25;;;30.48;;
31652;SDS011;18261;53.648;9.910;2024-02-28T11:23:07;56.53;;;31.80;;
31652;SDS011;18261;53.648;9.910;2024-02-28T11:25:34;60.13;;;30.85;;
31652;SDS011;18261;53.648;9.910;2024-02-28T11:28:00;52.83;;;30.55;;
31652;SDS011;18261;53.648;9.910;2024-02-28T11:30:26;49.47;;;29.83;;
31652;SDS011;18261;53.648;9.910;2024-02-28T11:32:52;46.08;;;26.85;;
31652;SDS011;18261;53.648;9.910;2024-02-28T11:35:19;48.20;;;26.67;;
31652;SDS011;18261;53.648;9.910;2024-02-28T11:37:46;50.33;;;28.83;;
31652;SDS011;18261;53.648;9.910;2024-02-28T11:40:12;55.42;;;29.55;;
31652;SDS011;18261;53.648;9.910;2024-02-28T11:42:39;61.55;;;32.80;;
31652;SDS011;18261;53.648;9.910;2024-02-28T11:45:05;57.80;;;31.75;;
31652;SDS011;18261;53.648;9.910;2024-02-28T11:47:32;94.45;;;45.30;;
31652;SDS011;18261;53.648;9.910;2024-02-28T11:50:01;68.60;;;33.15;;
31652;SDS011;18261;53.648;9.910;2024-02-28T11:52:27;57.25;;;29.95;;
31652;SDS011;18261;53.648;9.910;2024-02-28T11:54:54;54.80;;;30.40;;
31652;SDS011;18261;53.648;9.910;2024-02-28T11:57:20;60.10;;;29.48;;
31652;SDS011;18261;53.648;9.910;2024-02-28T11:59:47;54.08;;;28.70;;
31652;SDS011;18261;53.648;9.910;2024-02-28T12:02:14;55.17;;;29.17;;
31652;SDS011;18261;53.648;9.910;2024-02-28T12:04:41;52.33;;;27.70;;
31652;SDS011;18261;53.648;9.910;2024-02-28T12:07:10;62.28;;;30.38;;
31652;SDS011;18261;53.648;9.910;2024-02-28T12:09:36;59.75;;;30.90;;
31652;SDS011;18261;53.648;9.910;2024-02-28T12:12:06;60.53;;;29.55;;
31652;SDS011;18261;53.648;9.910;2024-02-28T12:14:35;53.22;;;27.63;;
31652;SDS011;18261;53.648;9.910;2024-02-28T12:17:02;62.83;;;31.80;;
31652;SDS011;18261;53.648;9.910;2024-02-28T12:19:28;61.22;;;27.95;;
31652;SDS011;18261;53.648;9.910;2024-02-28T12:21:54;58.38;;;30.50;;
31652;SDS011;18261;53.648;9.910;2024-02-28T12:24:21;52.90;;;25.92;;
31652;SDS011;18261;53.648;9.910;2024-02-28T12:26:47;54.78;;;28.50;;
31652;SDS011;18261;53.648;9.910;2024-02-28T12:29:13;51.40;;;26.80;;
31652;SDS011;18261;53.648;9.910;2024-02-28T12:31:39;54.55;;;27.85;;
31652;SDS011;18261;53.648;9.910;2024-02-28T12:34:05;56.67;;;28.20;;
31652;SDS011;18261;53.648;9.910;2024-02-28T12:36:31;56.33;;;28.15;;
31652;SDS011;18261;53.648;9.910;2024-02-28T12:38:57;58.80;;;29.55;;
31652;SDS011;18261;53.648;9.910;2024-02-28T12:41:24;61.58;;;29.98;;
31652;SDS011;18261;53.648;9.910;2024-02-28T12:43:50;58.70;;;28.52;;
31652;SDS011;18261;53.648;9.910;2024-02-28T12:46:16;53.08;;;27.45;;
31652;SDS011;18261;53.648;9.910;2024-02-28T12:48:42;54.88;;;26.83;;
31652;SDS011;18261;53.648;9.910;2024-02-28T12:51:57;54.20;;;27.33;;
31652;SDS011;18261;53.648;9.910;2024-02-28T12:53:58;45.15;;;24.95;;
31652;SDS011;18261;53.648;9.910;2024-02-28T12:56:24;59.03;;;26.75;;
31652;SDS011;18261;53.648;9.910;2024-02-28T12:58:50;51.60;;;27.02;;
31652;SDS011;18261;53.648;9.910;2024-02-28T13:01:16;53.70;;;25.17;;
31652;SDS011;18261;53.648;9.910;2024-02-28T13:03:42;49.47;;;25.20;;
31652;SDS011;18261;53.648;9.910;2024-02-28T13:06:08;50.35;;;25.17;;
31652;SDS011;18261;53.648;9.910;2024-02-28T13:08:34;51.42;;;26.95;;
31652;SDS011;18261;53.648;9.910;2024-02-28T13:11:00;53.88;;;25.80;;
31652;SDS011;18261;53.648;9.910;2024-02-28T13:13:26;48.08;;;25.10;;
31652;SDS011;18261;53.648;9.910;2024-02-28T13:15:52;51.95;;;25.58;;
31652;SDS011;18261;53.648;9.910;2024-02-28T13:18:18;57.22;;;27.65;;
31652;SDS011;18261;53.648;9.910;2024-02-28T13:20:44;51.67;;;26.15;;
31652;SDS011;18261;53.648;9.910;2024-02-28T13:23:10;53.88;;;26.38;;
31652;SDS011;18261;53.648;9.910;2024-02-28T13:25:36;58.25;;;27.67;;
31652;SDS011;18261;53.648;9.910;2024-02-28T13:28:02;52.78;;;26.35;;
31652;SDS011;18261;53.648;9.910;2024-02-28T13:30:28;56.30;;;27.27;;
31652;SDS011;18261;53.648;9.910;2024-02-28T13:32:54;56.72;;;26.27;;
31652;SDS011;18261;53.648;9.910;2024-02-28T13:35:20;55.38;;;24.92;;
31652;SDS011;18261;53.648;9.910;2024-02-28T13:37:47;55.42;;;26.45;;
31652;SDS011;18261;53.648;9.910;2024-02-28T13:40:13;59.78;;;26.83;;
31652;SDS011;18261;53.648;9.910;2024-02-28T13:42:39;56.25;;;27.98;;
31652;SDS011;18261;53.648;9.910;2024-02-28T13:45:06;63.20;;;28.15;;
31652;SDS011;18261;53.648;9.910;2024-02-28T13:47:33;63.60;;;28.73;;
31652;SDS011;18261;53.648;9.910;2024-02-28T13:49:59;63.45;;;28.33;;
31652;SDS011;18261;53.648;9.910;2024-02-28T13:52:25;57.35;;;27.23;;
31652;SDS011;18261;53.648;9.910;2024-02-28T13:54:51;60.08;;;27.63;;
31652;SDS011;18261;53.648;9.910;2024-02-28T13:57:17;63.30;;;28.95;;
31652;SDS011;18261;53.648;9.910;2024-02-28T13:59:43;57.65;;;28.45;;
31652;SDS011;18261;53.648;9.910;2024-02-28T14:02:13;66.75;;;28.65;;
31652;SDS011;18261;53.648;9.910;2024-02-28T14:04:40;65.18;;;27.85;;
31652;SDS011;18261;53.648;9.910;2024-02-28T14:07:07;64.45;;;28.83;;
31652;SDS011;18261;53.648;9.910;2024-02-28T14:09:33;60.65;;;28.98;;
31652;SDS011;18261;53.648;9.910;2024-02-28T14:11:59;67.80;;;30.25;;
31652;SDS011;18261;53.648;9.910;2024-02-28T14:14:25;60.25;;;28.30;;
31652;SDS011;18261;53.648;9.910;2024-02-28T14:16:52;58.08;;;28.15;;